sensor_id;sensor_type;location;lat;lon;timestamp;temperature;humidity
69382;DHT22;56560;50.692;12.844;2024-03-23T00:54:15;10.20;74.20
69382;DHT22;56560;50.692;12.844;2024-03-23T00:56:40;10.20;73.90
69382;DHT22;56560;50.692;12.844;2024-03-23T00:59:06;10.30;73.70
69382;DHT22;56560;50.692;12.844;2024-03-23T01:01:32;10.20;73.20
69382;DHT22;56560;50.692;12.844;2024-03-23T01:03:57;10.20;73.80
69382;DHT22;56560;50.692;12.844;2024-03-23T01:06:23;10.20;73.40
69382;DHT22;56560;50.692;12.844;2024-03-23T01:08:48;10.20;73.10
69382;DHT22;56560;50.692;12.844;2024-03-23T01:11:14;10.30;72.70
69382;DHT22;56560;50.692;12.844;2024-03-23T01:13:40;10.30;72.40
69382;DHT22;56560;50.692;12.844;2024-03-23T01:16:05;10.30;72.20
69382;DHT22;56560;50.692;12.844;2024-03-23T01:18:32;10.20;72.80
69382;DHT22;56560;50.692;12.844;2024-03-23T01:20:58;10.20;72.90
69382;DHT22;56560;50.692;12.844;2024-03-23T01:23:23;10.20;72.60
69382;DHT22;56560;50.692;12.844;2024-03-23T01:25:53;10.10;72.50
69382;DHT22;56560;50.692;12.844;2024-03-23T01:28:19;10.10;72.60
69382;DHT22;56560;50.692;12.844;2024-03-23T01:30:45;10.10;72.70
69382;DHT22;56560;50.692;12.844;2024-03-23T01:33:10;10.10;72.60
69382;DHT22;56560;50.692;12.844;2024-03-23T01:35:36;10.10;73.00
69382;DHT22;56560;50.692;12.844;2024-03-23T01:38:01;10.20;72.70
69382;DHT22;56560;50.692;12.844;2024-03-23T01:40:27;10.20;72.40
69382;DHT22;56560;50.692;12.844;2024-03-23T01:43:07;10.30;71.80
69382;DHT22;56560;50.692;12.844;2024-03-23T01:45:33;10.40;71.40
69382;DHT22;56560;50.692;12.844;2024-03-23T01:47:59;10.60;71.30
69382;DHT22;56560;50.692;12.844;2024-03-23T01:50:26;10.70;71.00
69382;DHT22;56560;50.692;12.844;2024-03-23T01:52:53;10.70;71.00
69382;DHT22;56560;50.692;12.844;2024-03-23T01:55:19;10.60;71.00
69382;DHT22;56560;50.692;12.844;2024-03-23T01:57:45;10.60;71.20
69382;DHT22;56560;50.692;12.844;2024-03-23T02:00:11;10.60;71.50
69382;DHT22;56560;50.692;12.844;2024-03-23T02:02:42;10.60;71.70
69382;DHT22;56560;50.692;12.844;2024-03-23T02:05:08;10.60;71.40
69382;DHT22;56560;50.692;12.844;2024-03-23T02:07:33;10.50;71.70
69382;DHT22;56560;50.692;12.844;2024-03-23T02:10:00;10.40;72.30
69382;DHT22;56560;50.692;12.844;2024-03-23T02:12:26;10.20;72.70
69382;DHT22;56560;50.692;12.844;2024-03-23T02:14:51;10.10;73.80
69382;DHT22;56560;50.692;12.844;2024-03-23T02:17:17;10.00;74.20
69382;DHT22;56560;50.692;12.844;2024-03-23T02:19:43;10.00;73.80
69382;DHT22;56560;50.692;12.844;2024-03-23T02:22:08;10.10;73.60
69382;DHT22;56560;50.692;12.844;2024-03-23T02:24:36;10.20;73.70
69382;DHT22;56560;50.692;12.844;2024-03-23T02:27:02;10.10;73.80
69382;DHT22;56560;50.692;12.844;2024-03-23T02:29:28;10.00;73.70
69382;DHT22;56560;50.692;12.844;2024-03-23T02:31:53;9.90;74.20
69382;DHT22;56560;50.692;12.844;2024-03-23T02:34:19;9.70;74.80
69382;DHT22;56560;50.692;12.844;2024-03-23T02:36:44;9.60;75.30
69382;DHT22;56560;50.692;12.844;2024-03-23T02:39:10;9.50;75.70
69382;DHT22;56560;50.692;12.844;2024-03-23T02:41:36;9.40;76.10
69382;DHT22;56560;50.692;12.844;2024-03-23T02:44:02;9.20;76.40
69382;DHT22;56560;50.692;12.844;2024-03-23T02:46:27;9.10;77.00
69382;DHT22;56560;50.692;12.844;2024-03-23T02:48:53;8.90;77.00
69382;DHT22;56560;50.692;12.844;2024-03-23T02:51:18;8.90;77.00
69382;DHT22;56560;50.692;12.844;2024-03-23T02:53:44;9.00;76.30
69382;DHT22;56560;50.692;12.844;2024-03-23T02:56:09;8.90;76.90
69382;DHT22;56560;50.692;12.844;2024-03-23T02:58:41;8.90;76.30
69382;DHT22;56560;50.692;12.844;2024-03-23T03:01:06;8.70;76.60
69382;DHT22;56560;50.692;12.844;2024-03-23T03:03:32;8.60;77.30
69382;DHT22;56560;50.692;12.844;2024-03-23T03:05:58;8.50;77.90
69382;DHT22;56560;50.692;12.844;2024-03-23T03:08:23;8.40;78.30
69382;DHT22;56560;50.692;12.844;2024-03-23T03:10:49;8.40;78.20
69382;DHT22;56560;50.692;12.844;2024-03-23T03:13:14;8.40;78.10
69382;DHT22;56560;50.692;12.844;2024-03-23T03:15:44;8.40;78.00
69382;DHT22;56560;50.692;12.844;2024-03-23T03:18:09;8.40;77.30
69382;DHT22;56560;50.692;12.844;2024-03-23T03:20:38;8.30;76.90
69382;DHT22;56560;50.692;12.844;2024-03-23T03:23:05;8.20;77.70
69382;DHT22;56560;50.692;12.844;2024-03-23T03:25:30;8.10;78.00
69382;DHT22;56560;50.692;12.844;2024-03-23T03:27:56;8.00;78.10
69382;DHT22;56560;50.692;12.844;2024-03-23T03:30:21;7.90;78.20
69382;DHT22;56560;50.692;12.844;2024-03-23T03:32:47;7.80;78.50
69382;DHT22;56560;50.692;12.844;2024-03-23T03:35:12;7.60;78.70
69382;DHT22;56560;50.692;12.844;2024-03-23T03:37:38;7.50;78.90
69382;DHT22;56560;50.692;12.844;2024-03-23T03:40:04;7.30;79.70
69382;DHT22;56560;50.692;12.844;2024-03-23T03:42:29;7.20;80.40
69382;DHT22;56560;50.692;12.844;2024-03-23T03:44:55;7.20;81.10
69382;DHT22;56560;50.692;12.844;2024-03-23T03:47:20;7.10;81.10
69382;DHT22;56560;50.692;12.844;2024-03-23T03:49:47;7.00;80.60
69382;DHT22;56560;50.692;12.844;2024-03-23T03:52:13;6.90;80.20
69382;DHT22;56560;50.692;12.844;2024-03-23T03:54:38;6.80;81.00
69382;DHT22;56560;50.692;12.844;2024-03-23T03:57:04;6.80;81.20
69382;DHT22;56560;50.692;12.844;2024-03-23T03:59:29;6.70;80.50
69382;DHT22;56560;50.692;12.844;2024-03-23T04:01:55;6.60;80.40
69382;DHT22;56560;50.692;12.844;2024-03-23T04:04:20;6.60;80.10
69382;DHT22;56560;50.692;12.844;2024-03-23T04:06:48;6.50;80.90
69382;DHT22;56560;50.692;12.844;2024-03-23T04:09:13;6.40;80.90
69382;DHT22;56560;50.692;12.844;2024-03-23T04:11:39;6.30;80.90
69382;DHT22;56560;50.692;12.844;2024-03-23T04:14:04;6.20;81.00
69382;DHT22;56560;50.692;12.844;2024-03-23T04:16:34;6.20;83.00
69382;DHT22;56560;50.692;12.844;2024-03-23T04:18:59;6.20;81.50
69382;DHT22;56560;50.692;12.844;2024-03-23T04:21:25;6.20;82.30
69382;DHT22;56560;50.692;12.844;2024-03-23T04:23:51;6.10;82.60
69382;DHT22;56560;50.692;12.844;2024-03-23T04:26:17;6.10;82.30
69382;DHT22;56560;50.692;12.844;2024-03-23T04:28:42;6.10;83.00
69382;DHT22;56560;50.692;12.844;2024-03-23T04:31:08;6.00;82.90
69382;DHT22;56560;50.692;12.844;2024-03-23T04:33:34;6.10;82.30
69382;DHT22;56560;50.692;12.844;2024-03-23T04:35:59;6.00;82.00
69382;DHT22;56560;50.692;12.844;2024-03-23T04:38:25;5.90;81.90
69382;DHT22;56560;50.692;12.844;2024-03-23T04:40:55;5.80;81.50
69382;DHT22;56560;50.692;12.844;2024-03-23T04:43:20;5.70;81.50
69382;DHT22;56560;50.692;12.844;2024-03-23T04:45:46;5.70;82.10
69382;DHT22;56560;50.692;12.844;2024-03-23T04:48:11;5.70;82.60
69382;DHT22;56560;50.692;12.844;2024-03-23T04:50:37;5.70;82.30
69382;DHT22;56560;50.692;12.844;2024-03-23T04:53:02;5.70;81.30
69382;DHT22;56560;50.692;12.844;2024-03-23T04:55:28;5.70;81.10
69382;DHT22;56560;50.692;12.844;2024-03-23T04:57:54;5.80;81.80
69382;DHT22;56560;50.692;12.844;2024-03-23T05:00:19;5.90;81.60
69382;DHT22;56560;50.692;12.844;2024-03-23T05:02:45;6.10;80.30
69382;DHT22;56560;50.692;12.844;2024-03-23T05:05:11;6.30;79.40
69382;DHT22;56560;50.692;12.844;2024-03-23T05:07:36;6.40;79.80
69382;DHT22;56560;50.692;12.844;2024-03-23T05:10:03;6.50;79.60
69382;DHT22;56560;50.692;12.844;2024-03-23T05:12:28;6.70;78.70
69382;DHT22;56560;50.692;12.844;2024-03-23T05:14:54;6.80;78.80
69382;DHT22;56560;50.692;12.844;2024-03-23T05:17:19;6.90;78.90
69382;DHT22;56560;50.692;12.844;2024-03-23T05:19:45;7.00;77.60
69382;DHT22;56560;50.692;12.844;2024-03-23T05:22:11;7.10;77.80
69382;DHT22;56560;50.692;12.844;2024-03-23T05:24:36;7.20;77.30
69382;DHT22;56560;50.692;12.844;2024-03-23T05:27:02;7.20;77.40
69382;DHT22;56560;50.692;12.844;2024-03-23T05:29:27;7.30;77.10
69382;DHT22;56560;50.692;12.844;2024-03-23T05:31:54;7.30;77.20
69382;DHT22;56560;50.692;12.844;2024-03-23T05:34:22;7.40;76.90
69382;DHT22;56560;50.692;12.844;2024-03-23T05:36:47;7.50;76.60
69382;DHT22;56560;50.692;12.844;2024-03-23T05:39:14;7.50;77.30
69382;DHT22;56560;50.692;12.844;2024-03-23T05:41:42;7.50;77.60
69382;DHT22;56560;50.692;12.844;2024-03-23T05:44:07;7.70;77.10
69382;DHT22;56560;50.692;12.844;2024-03-23T05:46:33;7.90;76.60
69382;DHT22;56560;50.692;12.844;2024-03-23T05:49:01;7.90;76.70
69382;DHT22;56560;50.692;12.844;2024-03-23T05:51:27;8.00;76.70
69382;DHT22;56560;50.692;12.844;2024-03-23T05:53:53;8.10;76.40
69382;DHT22;56560;50.692;12.844;2024-03-23T05:56:19;8.10;76.80
69382;DHT22;56560;50.692;12.844;2024-03-23T05:58:45;8.20;77.50
69382;DHT22;56560;50.692;12.844;2024-03-23T06:01:12;8.20;77.30
69382;DHT22;56560;50.692;12.844;2024-03-23T06:03:38;8.30;77.20
69382;DHT22;56560;50.692;12.844;2024-03-23T06:06:04;8.30;76.90
69382;DHT22;56560;50.692;12.844;2024-03-23T06:08:29;8.30;77.40
69382;DHT22;56560;50.692;12.844;2024-03-23T06:10:55;8.30;77.90
69382;DHT22;56560;50.692;12.844;2024-03-23T06:13:20;8.30;78.10
69382;DHT22;56560;50.692;12.844;2024-03-23T06:15:50;8.30;77.90
69382;DHT22;56560;50.692;12.844;2024-03-23T06:18:15;8.40;78.30
69382;DHT22;56560;50.692;12.844;2024-03-23T06:20:41;8.50;78.80
69382;DHT22;56560;50.692;12.844;2024-03-23T06:23:06;8.60;79.30
69382;DHT22;56560;50.692;12.844;2024-03-23T06:25:32;8.60;80.50
69382;DHT22;56560;50.692;12.844;2024-03-23T06:27:58;8.70;80.70
69382;DHT22;56560;50.692;12.844;2024-03-23T06:30:24;8.80;80.60
69382;DHT22;56560;50.692;12.844;2024-03-23T06:32:49;9.00;80.60
69382;DHT22;56560;50.692;12.844;2024-03-23T06:35:15;9.10;80.40
69382;DHT22;56560;50.692;12.844;2024-03-23T06:37:40;9.20;80.50
69382;DHT22;56560;50.692;12.844;2024-03-23T06:40:07;9.30;80.80
69382;DHT22;56560;50.692;12.844;2024-03-23T06:42:35;9.40;80.70
69382;DHT22;56560;50.692;12.844;2024-03-23T06:45:02;9.50;80.60
69382;DHT22;56560;50.692;12.844;2024-03-23T06:47:28;9.60;80.70
69382;DHT22;56560;50.692;12.844;2024-03-23T06:49:54;9.80;81.30
69382;DHT22;56560;50.692;12.844;2024-03-23T06:52:20;10.00;81.70
69382;DHT22;56560;50.692;12.844;2024-03-23T06:54:45;10.50;81.20
69382;DHT22;56560;50.692;12.844;2024-03-23T06:57:12;10.80;78.70
69382;DHT22;56560;50.692;12.844;2024-03-23T06:59:37;11.10;77.50
69382;DHT22;56560;50.692;12.844;2024-03-23T07:02:05;11.40;76.10
69382;DHT22;56560;50.692;12.844;2024-03-23T07:04:31;11.60;75.60
69382;DHT22;56560;50.692;12.844;2024-03-23T07:06:56;11.80;74.20
69382;DHT22;56560;50.692;12.844;2024-03-23T07:09:22;12.00;74.20
69382;DHT22;56560;50.692;12.844;2024-03-23T07:11:53;12.10;73.10
69382;DHT22;56560;50.692;12.844;2024-03-23T07:14:18;12.40;72.30
69382;DHT22;56560;50.692;12.844;2024-03-23T07:16:44;12.70;71.20
69382;DHT22;56560;50.692;12.844;2024-03-23T07:19:10;13.10;70.80
69382;DHT22;56560;50.692;12.844;2024-03-23T07:21:38;13.40;68.90
69382;DHT22;56560;50.692;12.844;2024-03-23T07:24:07;13.50;67.70
69382;DHT22;56560;50.692;12.844;2024-03-23T07:26:32;13.30;67.50
69382;DHT22;56560;50.692;12.844;2024-03-23T07:28:58;13.00;68.40
69382;DHT22;56560;50.692;12.844;2024-03-23T07:31:24;12.80;69.20
69382;DHT22;56560;50.692;12.844;2024-03-23T07:33:50;12.70;69.70
69382;DHT22;56560;50.692;12.844;2024-03-23T07:36:16;12.60;69.60
69382;DHT22;56560;50.692;12.844;2024-03-23T07:38:42;12.50;70.20
69382;DHT22;56560;50.692;12.844;2024-03-23T07:41:12;12.50;69.90
69382;DHT22;56560;50.692;12.844;2024-03-23T07:43:39;12.40;70.50
69382;DHT22;56560;50.692;12.844;2024-03-23T07:46:06;12.50;70.40
69382;DHT22;56560;50.692;12.844;2024-03-23T07:48:32;12.80;69.50
69382;DHT22;56560;50.692;12.844;2024-03-23T07:51:13;13.00;69.10
69382;DHT22;56560;50.692;12.844;2024-03-23T07:53:39;13.00;69.20
69382;DHT22;56560;50.692;12.844;2024-03-23T07:56:07;13.00;68.90
69382;DHT22;56560;50.692;12.844;2024-03-23T07:58:33;13.20;68.70
69382;DHT22;56560;50.692;12.844;2024-03-23T08:01:28;13.30;68.50
69382;DHT22;56560;50.692;12.844;2024-03-23T08:03:53;13.20;68.60
69382;DHT22;56560;50.692;12.844;2024-03-23T08:06:19;13.20;68.20
69382;DHT22;56560;50.692;12.844;2024-03-23T08:08:47;13.20;68.40
69382;DHT22;56560;50.692;12.844;2024-03-23T08:11:13;13.10;68.50
69382;DHT22;56560;50.692;12.844;2024-03-23T08:13:41;12.90;69.10
69382;DHT22;56560;50.692;12.844;2024-03-23T08:16:08;12.80;68.90
69382;DHT22;56560;50.692;12.844;2024-03-23T08:18:37;12.70;69.40
69382;DHT22;56560;50.692;12.844;2024-03-23T08:21:05;12.60;69.60
69382;DHT22;56560;50.692;12.844;2024-03-23T08:23:32;12.50;68.80
69382;DHT22;56560;50.692;12.844;2024-03-23T08:26:04;12.50;68.90
69382;DHT22;56560;50.692;12.844;2024-03-23T08:28:30;12.50;69.50
69382;DHT22;56560;50.692;12.844;2024-03-23T08:30:56;12.40;70.40
69382;DHT22;56560;50.692;12.844;2024-03-23T08:33:22;12.40;71.20
69382;DHT22;56560;50.692;12.844;2024-03-23T08:35:58;12.40;71.10
69382;DHT22;56560;50.692;12.844;2024-03-23T08:38:25;12.30;70.40
69382;DHT22;56560;50.692;12.844;2024-03-23T08:41:19;12.10;72.10
69382;DHT22;56560;50.692;12.844;2024-03-23T08:43:45;12.00;72.70
69382;DHT22;56560;50.692;12.844;2024-03-23T08:46:12;12.00;72.30
69382;DHT22;56560;50.692;12.844;2024-03-23T08:48:39;12.10;72.00
69382;DHT22;56560;50.692;12.844;2024-03-23T08:51:06;12.40;71.60
69382;DHT22;56560;50.692;12.844;2024-03-23T08:53:32;12.90;70.50
69382;DHT22;56560;50.692;12.844;2024-03-23T08:56:00;13.30;68.10
69382;DHT22;56560;50.692;12.844;2024-03-23T08:58:27;13.30;67.00
69382;DHT22;56560;50.692;12.844;2024-03-23T09:00:53;13.00;67.40
69382;DHT22;56560;50.692;12.844;2024-03-23T09:03:23;12.80;67.90
69382;DHT22;56560;50.692;12.844;2024-03-23T09:05:50;12.60;71.10
69382;DHT22;56560;50.692;12.844;2024-03-23T09:08:16;12.30;71.60
69382;DHT22;56560;50.692;12.844;2024-03-23T09:10:42;11.30;81.90
69382;DHT22;56560;50.692;12.844;2024-03-23T09:13:08;10.00;91.10
69382;DHT22;56560;50.692;12.844;2024-03-23T09:15:35;9.00;96.90
69382;DHT22;56560;50.692;12.844;2024-03-23T09:18:01;8.80;99.10
69382;DHT22;56560;50.692;12.844;2024-03-23T09:20:32;8.20;97.80
69382;DHT22;56560;50.692;12.844;2024-03-23T09:22:58;7.60;98.50
69382;DHT22;56560;50.692;12.844;2024-03-23T09:25:23;7.20;98.10
69382;DHT22;56560;50.692;12.844;2024-03-23T09:27:50;6.90;98.80
69382;DHT22;56560;50.692;12.844;2024-03-23T09:30:16;6.80;99.00
69382;DHT22;56560;50.692;12.844;2024-03-23T09:32:43;6.10;97.60
69382;DHT22;56560;50.692;12.844;2024-03-23T09:35:09;5.80;98.30
69382;DHT22;56560;50.692;12.844;2024-03-23T09:37:35;5.40;98.60
69382;DHT22;56560;50.692;12.844;2024-03-23T09:40:01;5.50;99.80
69382;DHT22;56560;50.692;12.844;2024-03-23T09:42:28;5.60;99.90
69382;DHT22;56560;50.692;12.844;2024-03-23T09:44:57;5.80;99.90
69382;DHT22;56560;50.692;12.844;2024-03-23T09:47:24;5.80;99.40
69382;DHT22;56560;50.692;12.844;2024-03-23T09:49:50;5.80;99.40
69382;DHT22;56560;50.692;12.844;2024-03-23T09:52:16;5.80;99.40
69382;DHT22;56560;50.692;12.844;2024-03-23T09:54:41;5.50;97.30
69382;DHT22;56560;50.692;12.844;2024-03-23T09:57:07;5.50;98.70
69382;DHT22;56560;50.692;12.844;2024-03-23T09:59:33;5.40;98.20
69382;DHT22;56560;50.692;12.844;2024-03-23T10:01:59;5.50;99.00
69382;DHT22;56560;50.692;12.844;2024-03-23T10:04:41;5.60;99.00
69382;DHT22;56560;50.692;12.844;2024-03-23T10:07:15;5.30;96.30
69382;DHT22;56560;50.692;12.844;2024-03-23T10:09:40;5.30;97.80
69382;DHT22;56560;50.692;12.844;2024-03-23T10:12:10;5.20;97.10
69382;DHT22;56560;50.692;12.844;2024-03-23T10:14:37;4.90;95.10
69382;DHT22;56560;50.692;12.844;2024-03-23T10:17:21;5.00;97.50
69382;DHT22;56560;50.692;12.844;2024-03-23T10:19:52;5.10;96.80
69382;DHT22;56560;50.692;12.844;2024-03-23T10:22:22;5.40;98.20
69382;DHT22;56560;50.692;12.844;2024-03-23T10:24:49;5.40;96.50
69382;DHT22;56560;50.692;12.844;2024-03-23T10:27:18;5.40;95.50
69382;DHT22;56560;50.692;12.844;2024-03-23T10:29:45;5.20;94.80
69382;DHT22;56560;50.692;12.844;2024-03-23T10:32:12;5.30;97.30
69382;DHT22;56560;50.692;12.844;2024-03-23T10:34:38;5.20;94.80
69382;DHT22;56560;50.692;12.844;2024-03-23T10:37:05;5.00;94.70
69382;DHT22;56560;50.692;12.844;2024-03-23T10:39:32;5.20;97.80
69382;DHT22;56560;50.692;12.844;2024-03-23T10:42:03;5.20;94.80
69382;DHT22;56560;50.692;12.844;2024-03-23T10:44:31;5.30;97.60
69382;DHT22;56560;50.692;12.844;2024-03-23T10:47:03;5.50;95.40
69382;DHT22;56560;50.692;12.844;2024-03-23T10:49:32;5.70;96.30
69382;DHT22;56560;50.692;12.844;2024-03-23T10:51:59;5.70;96.20
69382;DHT22;56560;50.692;12.844;2024-03-23T10:54:26;5.60;92.00
69382;DHT22;56560;50.692;12.844;2024-03-23T10:57:10;5.60;94.70
69382;DHT22;56560;50.692;12.844;2024-03-23T10:59:38;5.50;93.20
69382;DHT22;56560;50.692;12.844;2024-03-23T11:02:05;5.60;96.00
69382;DHT22;56560;50.692;12.844;2024-03-23T11:04:35;5.60;94.20
69382;DHT22;56560;50.692;12.844;2024-03-23T11:07:02;5.50;93.60
69382;DHT22;56560;50.692;12.844;2024-03-23T11:09:43;5.60;96.20
69382;DHT22;56560;50.692;12.844;2024-03-23T11:15:33;5.60;95.20
69382;DHT22;56560;50.692;12.844;2024-03-23T11:17:40;5.70;95.30
69382;DHT22;56560;50.692;12.844;2024-03-23T11:20:06;5.60;93.20
69382;DHT22;56560;50.692;12.844;2024-03-23T11:22:44;5.70;93.60
69382;DHT22;56560;50.692;12.844;2024-03-23T11:25:15;5.80;94.20
69382;DHT22;56560;50.692;12.844;2024-03-23T11:27:41;5.90;92.80
69382;DHT22;56560;50.692;12.844;2024-03-23T11:30:17;5.70;91.10
69382;DHT22;56560;50.692;12.844;2024-03-23T11:32:48;5.60;90.40
69382;DHT22;56560;50.692;12.844;2024-03-23T11:38:04;5.90;86.20
69382;DHT22;56560;50.692;12.844;2024-03-23T11:40:31;5.80;88.20
69382;DHT22;56560;50.692;12.844;2024-03-23T11:43:00;5.70;88.20
69382;DHT22;56560;50.692;12.844;2024-03-23T11:45:27;5.80;87.20
69382;DHT22;56560;50.692;12.844;2024-03-23T11:48:22;5.80;87.80
69382;DHT22;56560;50.692;12.844;2024-03-23T11:50:58;6.00;88.20
69382;DHT22;56560;50.692;12.844;2024-03-23T11:53:24;5.80;86.10
69382;DHT22;56560;50.692;12.844;2024-03-23T11:55:55;5.80;88.20
69382;DHT22;56560;50.692;12.844;2024-03-23T11:58:21;6.00;86.50
69382;DHT22;56560;50.692;12.844;2024-03-23T12:00:52;6.10;86.50
69382;DHT22;56560;50.692;12.844;2024-03-23T12:03:18;6.00;86.70
69382;DHT22;56560;50.692;12.844;2024-03-23T12:05:50;6.00;84.90
69382;DHT22;56560;50.692;12.844;2024-03-23T12:08:19;5.90;85.90
69382;DHT22;56560;50.692;12.844;2024-03-23T12:10:50;6.00;86.90
69382;DHT22;56560;50.692;12.844;2024-03-23T12:13:22;5.70;84.80
69382;DHT22;56560;50.692;12.844;2024-03-23T12:15:50;5.60;87.00
69382;DHT22;56560;50.692;12.844;2024-03-23T12:18:17;5.50;85.90
69382;DHT22;56560;50.692;12.844;2024-03-23T12:20:42;5.60;87.20
69382;DHT22;56560;50.692;12.844;2024-03-23T12:23:12;5.60;86.20
69382;DHT22;56560;50.692;12.844;2024-03-23T12:25:38;5.60;86.10
69382;DHT22;56560;50.692;12.844;2024-03-23T12:28:07;5.70;87.40
69382;DHT22;56560;50.692;12.844;2024-03-23T12:30:39;5.80;84.80
69382;DHT22;56560;50.692;12.844;2024-03-23T12:33:05;5.80;84.80
69382;DHT22;56560;50.692;12.844;2024-03-23T12:35:31;5.90;86.30
69382;DHT22;56560;50.692;12.844;2024-03-23T12:37:57;6.00;85.80
69382;DHT22;56560;50.692;12.844;2024-03-23T12:40:23;6.20;85.10
69382;DHT22;56560;50.692;12.844;2024-03-23T12:42:48;6.40;82.20
69382;DHT22;56560;50.692;12.844;2024-03-23T12:45:14;6.60;83.90
69382;DHT22;56560;50.692;12.844;2024-03-23T12:47:40;6.80;82.30
69382;DHT22;56560;50.692;12.844;2024-03-23T12:50:05;7.50;82.60
69382;DHT22;56560;50.692;12.844;2024-03-23T12:52:33;8.00;76.80
69382;DHT22;56560;50.692;12.844;2024-03-23T12:54:58;8.50;77.10
69382;DHT22;56560;50.692;12.844;2024-03-23T12:57:24;8.90;72.60
69382;DHT22;56560;50.692;12.844;2024-03-23T12:59:51;9.20;71.00
69382;DHT22;56560;50.692;12.844;2024-03-23T13:02:21;9.50;74.10
69382;DHT22;56560;50.692;12.844;2024-03-23T13:04:49;10.10;73.00
69382;DHT22;56560;50.692;12.844;2024-03-23T13:07:16;10.40;65.40
69382;DHT22;56560;50.692;12.844;2024-03-23T13:09:41;10.60;67.10
69382;DHT22;56560;50.692;12.844;2024-03-23T13:12:07;11.10;65.70
69382;DHT22;56560;50.692;12.844;2024-03-23T13:14:33;11.70;64.60
69382;DHT22;56560;50.692;12.844;2024-03-23T13:16:59;12.30;61.20
69382;DHT22;56560;50.692;12.844;2024-03-23T13:19:25;12.70;59.20
69382;DHT22;56560;50.692;12.844;2024-03-23T13:21:59;12.90;54.90
69382;DHT22;56560;50.692;12.844;2024-03-23T13:24:26;12.40;56.10
69382;DHT22;56560;50.692;12.844;2024-03-23T13:26:52;12.30;55.70
69382;DHT22;56560;50.692;12.844;2024-03-23T13:29:22;12.00;57.00
69382;DHT22;56560;50.692;12.844;2024-03-23T13:31:49;11.80;56.60
69382;DHT22;56560;50.692;12.844;2024-03-23T13:34:15;11.80;56.20
69382;DHT22;56560;50.692;12.844;2024-03-23T13:36:44;11.50;57.40
69382;DHT22;56560;50.692;12.844;2024-03-23T13:39:10;11.10;57.80
69382;DHT22;56560;50.692;12.844;2024-03-23T13:41:40;10.60;58.20
69382;DHT22;56560;50.692;12.844;2024-03-23T13:44:08;10.40;59.80
69382;DHT22;56560;50.692;12.844;2024-03-23T13:46:36;10.10;61.30
69382;DHT22;56560;50.692;12.844;2024-03-23T13:49:01;10.10;61.00
69382;DHT22;56560;50.692;12.844;2024-03-23T13:51:27;10.20;59.90
69382;DHT22;56560;50.692;12.844;2024-03-23T13:53:56;10.10;59.40
69382;DHT22;56560;50.692;12.844;2024-03-23T13:56:23;10.30;59.30
69382;DHT22;56560;50.692;12.844;2024-03-23T13:58:49;10.30;59.80
69382;DHT22;56560;50.692;12.844;2024-03-23T14:01:15;10.30;58.80
69382;DHT22;56560;50.692;12.844;2024-03-23T14:03:42;10.60;60.20
69382;DHT22;56560;50.692;12.844;2024-03-23T14:06:08;11.10;55.90
69382;DHT22;56560;50.692;12.844;2024-03-23T14:08:35;11.00;58.20
69382;DHT22;56560;50.692;12.844;2024-03-23T14:11:05;11.20;59.30
69382;DHT22;56560;50.692;12.844;2024-03-23T14:13:31;11.40;58.60
69382;DHT22;56560;50.692;12.844;2024-03-23T14:15:57;11.60;58.30
69382;DHT22;56560;50.692;12.844;2024-03-23T14:18:23;11.50;55.70
69382;DHT22;56560;50.692;12.844;2024-03-23T14:20:49;11.20;54.70
69382;DHT22;56560;50.692;12.844;2024-03-23T14:23:16;11.50;56.20
69382;DHT22;56560;50.692;12.844;2024-03-23T14:25:41;12.00;56.50
69382;DHT22;56560;50.692;12.844;2024-03-23T14:28:07;12.70;55.20
69382;DHT22;56560;50.692;12.844;2024-03-23T14:30:39;13.50;51.60
69382;DHT22;56560;50.692;12.844;2024-03-23T14:33:05;14.00;51.70
69382;DHT22;56560;50.692;12.844;2024-03-23T14:35:30;14.50;48.70
69382;DHT22;56560;50.692;12.844;2024-03-23T14:37:58;14.70;48.40
69382;DHT22;56560;50.692;12.844;2024-03-23T14:40:24;14.70;47.50
69382;DHT22;56560;50.692;12.844;2024-03-23T14:42:53;14.50;48.80
69382;DHT22;56560;50.692;12.844;2024-03-23T14:45:19;14.30;47.20
69382;DHT22;56560;50.692;12.844;2024-03-23T14:47:44;14.60;49.20
69382;DHT22;56560;50.692;12.844;2024-03-23T14:50:10;15.00;47.50
69382;DHT22;56560;50.692;12.844;2024-03-23T14:52:41;14.70;44.90
69382;DHT22;56560;50.692;12.844;2024-03-23T14:55:07;14.50;47.30
69382;DHT22;56560;50.692;12.844;2024-03-23T14:57:34;14.30;48.30
69382;DHT22;56560;50.692;12.844;2024-03-23T15:00:00;14.30;46.60
69382;DHT22;56560;50.692;12.844;2024-03-23T15:02:26;14.90;45.60
69382;DHT22;56560;50.692;12.844;2024-03-23T15:04:53;15.20;43.60
69382;DHT22;56560;50.692;12.844;2024-03-23T15:07:19;14.90;43.50
69382;DHT22;56560;50.692;12.844;2024-03-23T15:09:45;14.20;44.00
69382;DHT22;56560;50.692;12.844;2024-03-23T15:12:10;13.90;42.60
69382;DHT22;56560;50.692;12.844;2024-03-23T15:14:36;13.70;45.70
69382;DHT22;56560;50.692;12.844;2024-03-23T15:17:01;13.10;43.10
69382;DHT22;56560;50.692;12.844;2024-03-23T15:19:38;12.40;44.80
69382;DHT22;56560;50.692;12.844;2024-03-23T15:22:04;12.20;45.50
69382;DHT22;56560;50.692;12.844;2024-03-23T15:24:29;12.10;43.60
69382;DHT22;56560;50.692;12.844;2024-03-23T15:26:55;11.90;43.70
69382;DHT22;56560;50.692;12.844;2024-03-23T15:29:23;12.20;44.50
69382;DHT22;56560;50.692;12.844;2024-03-23T15:31:49;11.90;45.30
69382;DHT22;56560;50.692;12.844;2024-03-23T15:34:21;12.20;45.40
69382;DHT22;56560;50.692;12.844;2024-03-23T15:36:50;12.50;44.90
69382;DHT22;56560;50.692;12.844;2024-03-23T15:39:18;12.60;44.30
69382;DHT22;56560;50.692;12.844;2024-03-23T15:41:45;13.00;45.10
69382;DHT22;56560;50.692;12.844;2024-03-23T15:44:11;13.30;44.10
69382;DHT22;56560;50.692;12.844;2024-03-23T15:46:37;12.90;44.00
69382;DHT22;56560;50.692;12.844;2024-03-23T15:49:03;12.60;43.90
69382;DHT22;56560;50.692;12.844;2024-03-23T15:51:29;12.00;44.10
69382;DHT22;56560;50.692;12.844;2024-03-23T15:53:59;11.70;46.30
69382;DHT22;56560;50.692;12.844;2024-03-23T15:56:25;11.50;46.60
69382;DHT22;56560;50.692;12.844;2024-03-23T15:58:50;11.30;45.90
69382;DHT22;56560;50.692;12.844;2024-03-23T16:01:16;11.00;47.60
69382;DHT22;56560;50.692;12.844;2024-03-23T16:03:42;10.90;47.10
69382;DHT22;56560;50.692;12.844;2024-03-23T16:06:07;10.80;48.10
69382;DHT22;56560;50.692;12.844;2024-03-23T16:08:35;10.60;47.90
69382;DHT22;56560;50.692;12.844;2024-03-23T16:11:02;10.30;47.40
69382;DHT22;56560;50.692;12.844;2024-03-23T16:13:28;10.10;47.60
69382;DHT22;56560;50.692;12.844;2024-03-23T16:16:01;9.80;48.20
69382;DHT22;56560;50.692;12.844;2024-03-23T16:18:34;9.40;49.20
69382;DHT22;56560;50.692;12.844;2024-03-23T16:21:01;9.30;50.30
69382;DHT22;56560;50.692;12.844;2024-03-23T16:23:27;9.10;50.40